createdAt,value
2022-08-17T00:00:34.595Z,73.82
2022-08-17T00:03:57.747Z,73.60
2022-08-17T00:07:20.099Z,73.69
2022-08-17T00:10:45.768Z,73.68
2022-08-17T00:14:10.990Z,73.68
2022-08-17T00:17:34.044Z,73.29
2022-08-17T00:20:57.801Z,73.49
2022-08-17T00:24:20.812Z,73.61
2022-08-17T00:27:44.289Z,73.58
2022-08-17T00:31:07.848Z,73.92
2022-08-17T00:34:29.697Z,73.64
2022-08-17T00:37:53.990Z,73.77
2022-08-17T00:41:21.536Z,73.77
2022-08-17T00:44:44.677Z,73.88
2022-08-17T00:48:06.850Z,74.41
2022-08-17T00:51:54.113Z,74.13
2022-08-17T00:55:16.620Z,74.58
2022-08-17T00:58:38.693Z,74.94
2022-08-17T01:02:03.807Z,74.99
2022-08-17T01:05:28.556Z,75.03
2022-08-17T01:08:57.556Z,75.06
2022-08-17T01:12:20.037Z,75.45
2022-08-17T01:15:59.724Z,75.27
2022-08-17T01:19:26.722Z,76.13
2022-08-17T01:22:50.736Z,76.49
2022-08-17T01:26:13.205Z,76.84
2022-08-17T01:29:38.305Z,77.00
2022-08-17T01:33:00.789Z,76.92
2022-08-17T01:36:23.141Z,76.80
2022-08-17T01:39:50.288Z,77.12
2022-08-17T01:43:16.228Z,76.84
2022-08-17T01:46:39.124Z,77.06
2022-08-17T01:50:08.782Z,76.94
2022-08-17T01:53:36.155Z,77.14
2022-08-17T01:56:59.386Z,77.18
2022-08-17T02:00:21.784Z,77.22
2022-08-17T02:03:59.026Z,77.31
2022-08-17T02:07:26.079Z,77.82
2022-08-17T02:10:49.971Z,77.58
2022-08-17T02:14:15.299Z,77.65
2022-08-17T02:17:37.872Z,77.77
2022-08-17T02:21:00.422Z,77.92
2022-08-17T02:24:59.329Z,77.92
2022-08-17T02:28:07.701Z,78.03
2022-08-17T02:31:31.560Z,78.52
2022-08-17T02:34:54.109Z,78.49
2022-08-17T02:38:16.906Z,78.44
2022-08-17T02:41:39.846Z,78.70
2022-08-17T02:45:02.158Z,78.42
2022-08-17T02:48:28.168Z,78.50
2022-08-17T02:51:53.444Z,78.41
2022-08-17T02:55:19.463Z,78.21
2022-08-17T02:58:41.836Z,78.08
2022-08-17T03:02:04.864Z,78.03
2022-08-17T03:05:31.346Z,78.15
2022-08-17T03:08:54.822Z,78.29
2022-08-17T03:12:18.141Z,77.94
2022-08-17T03:15:41.527Z,77.76
2022-08-17T03:19:06.475Z,77.87
2022-08-17T03:22:36.471Z,78.24
2022-08-17T03:26:01.167Z,78.13
2022-08-17T03:29:24.338Z,78.40
2022-08-17T03:32:49.642Z,78.50
2022-08-17T03:36:12.176Z,78.23
2022-08-17T03:39:35.804Z,78.54
2022-08-17T03:42:57.765Z,78.33
2022-08-17T03:46:37.618Z,78.48
2022-08-17T03:50:17.586Z,78.23
2022-08-17T03:54:07.697Z,78.04
2022-08-17T03:57:32.162Z,77.62
2022-08-17T04:00:56.192Z,77.34
2022-08-17T04:04:18.493Z,77.49
2022-08-17T04:07:40.585Z,77.05
2022-08-17T04:11:03.184Z,76.95
2022-08-17T04:14:26.524Z,76.61
2022-08-17T04:17:49.811Z,76.59
2022-08-17T04:21:12.084Z,75.82
2022-08-17T04:24:34.958Z,75.44
2022-08-17T04:27:57.797Z,74.88
2022-08-17T04:31:21.810Z,74.14
2022-08-17T04:34:44.044Z,73.63
2022-08-17T04:38:06.582Z,73.18
2022-08-17T04:41:46.032Z,72.80
2022-08-17T04:45:09.182Z,72.73
2022-08-17T04:48:37.208Z,72.12
2022-08-17T04:52:04.411Z,71.47
2022-08-17T04:55:27.121Z,71.79
2022-08-17T04:58:51.513Z,71.55
2022-08-17T05:02:15.605Z,71.75
2022-08-17T05:05:43.240Z,71.36
2022-08-17T05:09:06.155Z,71.25
2022-08-17T05:12:28.061Z,71.13
2022-08-17T05:15:55.036Z,71.05
2022-08-17T05:19:17.002Z,70.16
2022-08-17T05:22:49.630Z,70.13
2022-08-17T05:26:20.425Z,69.53
2022-08-17T05:29:48.777Z,68.57
2022-08-17T05:33:12.205Z,68.40
2022-08-17T05:36:42.267Z,67.91
2022-08-17T05:40:10.137Z,67.38
2022-08-17T05:43:34.118Z,67.10
2022-08-17T05:46:56.503Z,66.81
2022-08-17T05:50:27.185Z,66.08
2022-08-17T05:53:59.882Z,65.60
2022-08-17T05:57:53.478Z,64.60
2022-08-17T06:01:27.749Z,65.13
2022-08-17T06:05:06.956Z,64.28
2022-08-17T06:08:36.493Z,63.46
2022-08-17T06:12:04.878Z,62.93
2022-08-17T06:15:34.107Z,62.55
2022-08-17T06:19:00.982Z,62.86
2022-08-17T06:22:27.450Z,61.97
2022-08-17T06:25:53.630Z,61.70
2022-08-17T06:29:24.745Z,60.24
2022-08-17T06:32:51.234Z,60.11
2022-08-17T06:36:29.419Z,58.02
2022-08-17T06:39:56.879Z,56.88
2022-08-17T06:43:44.058Z,59.06
2022-08-17T06:47:13.801Z,58.30
2022-08-17T06:50:40.088Z,57.82
2022-08-17T06:54:08.388Z,57.32
2022-08-17T06:57:33.674Z,56.84
2022-08-17T07:00:59.227Z,56.30
2022-08-17T07:04:25.356Z,56.19
2022-08-17T07:08:03.212Z,55.38
2022-08-17T07:11:31.786Z,55.56
2022-08-17T07:14:57.922Z,56.18
2022-08-17T07:18:20.519Z,56.27
2022-08-17T07:21:55.131Z,55.59
2022-08-17T07:25:21.497Z,55.58
2022-08-17T07:28:45.568Z,54.93
2022-08-17T07:32:08.948Z,53.73
2022-08-17T07:35:41.426Z,52.44
2022-08-17T07:39:06.512Z,52.89
2022-08-17T07:42:30.078Z,52.51
2022-08-17T07:46:19.835Z,51.73
2022-08-17T07:49:46.632Z,51.74
2022-08-17T07:53:18.098Z,50.74
2022-08-17T07:56:45.418Z,49.75
2022-08-17T08:00:26.626Z,50.65
2022-08-17T08:03:54.466Z,50.90
2022-08-17T08:07:27.168Z,49.62
2022-08-17T08:11:00.759Z,49.71
2022-08-17T08:14:29.627Z,50.68
2022-08-17T08:17:58.727Z,50.21
2022-08-17T08:21:29.622Z,51.53
2022-08-17T08:25:02.863Z,51.33
2022-08-17T08:28:31.477Z,50.97
2022-08-17T08:32:04.378Z,50.98
2022-08-17T08:35:33.018Z,51.43
2022-08-17T08:39:03.136Z,51.72
2022-08-17T08:42:33.698Z,51.67
2022-08-17T08:46:06.187Z,52.08
2022-08-17T08:50:05.706Z,52.30
2022-08-17T08:53:39.785Z,51.92
2022-08-17T08:57:24.430Z,51.67
2022-08-17T09:00:53.568Z,51.57
2022-08-17T09:05:10.010Z,51.58
2022-08-17T09:08:32.034Z,51.24
2022-08-17T09:12:05.183Z,50.92
2022-08-17T09:15:32.374Z,51.24
2022-08-17T09:19:04.356Z,50.38
2022-08-17T09:22:34.194Z,49.45
2022-08-17T09:26:04.324Z,49.30
2022-08-17T09:29:35.358Z,49.20
2022-08-17T09:33:00.274Z,49.06
2022-08-17T09:36:29.651Z,48.46
2022-08-17T09:39:56.819Z,47.71
2022-08-17T09:43:28.976Z,46.81
2022-08-17T09:46:57.172Z,48.72
2022-08-17T09:51:05.139Z,49.13
2022-08-17T09:54:38.161Z,48.74
2022-08-17T09:58:10.802Z,48.68
2022-08-17T10:01:40.093Z,48.82
2022-08-17T10:05:10.488Z,48.19
2022-08-17T10:08:40.416Z,48.49
2022-08-17T10:12:20.602Z,48.90
2022-08-17T10:15:52.397Z,47.84
2022-08-17T10:19:19.825Z,48.43
2022-08-17T10:23:05.727Z,47.64
2022-08-17T10:26:46.324Z,47.35
2022-08-17T10:30:19.073Z,47.62
2022-08-17T10:33:56.742Z,46.74
2022-08-17T10:37:41.948Z,47.02
2022-08-17T10:41:17.690Z,47.88
2022-08-17T10:44:50.365Z,47.73
2022-08-17T10:48:36.757Z,47.71
2022-08-17T10:52:00.159Z,48.33
2022-08-17T10:55:22.049Z,48.96
2022-08-17T10:58:51.357Z,48.12
2022-08-17T11:02:19.072Z,49.49
2022-08-17T11:05:54.124Z,49.77
2022-08-17T11:09:32.857Z,50.08
2022-08-17T11:13:05.684Z,49.76
2022-08-17T11:16:48.133Z,49.23
2022-08-17T11:20:37.775Z,49.06
2022-08-17T11:24:18.960Z,49.24
2022-08-17T11:27:42.699Z,49.83
2022-08-17T11:31:09.871Z,49.19
2022-08-17T11:34:34.724Z,49.65
2022-08-17T11:38:13.995Z,49.44
2022-08-17T11:41:49.045Z,49.46
2022-08-17T11:45:32.129Z,49.52
2022-08-17T11:49:21.693Z,49.44
2022-08-17T11:52:48.458Z,49.98
2022-08-17T11:56:12.189Z,49.84
2022-08-17T11:59:58.570Z,49.42
2022-08-17T12:03:27.622Z,50.01
2022-08-17T12:06:54.871Z,49.83
2022-08-17T12:10:22.049Z,50.03
2022-08-17T12:13:48.971Z,50.51
2022-08-17T12:17:22.452Z,50.18
2022-08-17T12:21:39.387Z,51.25
2022-08-17T12:25:10.415Z,51.97
2022-08-17T12:28:36.745Z,52.36
2022-08-17T12:32:02.279Z,52.93
2022-08-17T12:35:30.286Z,53.72
2022-08-17T12:39:13.000Z,54.37
2022-08-17T12:42:41.621Z,53.88
2022-08-17T12:46:13.460Z,53.34
2022-08-17T12:49:39.765Z,54.36
2022-08-17T12:53:02.732Z,53.55
2022-08-17T12:56:24.911Z,53.61
2022-08-17T12:59:50.821Z,54.03
2022-08-17T13:03:19.370Z,52.02
2022-08-17T13:06:49.219Z,51.39
2022-08-17T13:10:22.777Z,51.55
2022-08-17T13:13:46.956Z,50.93
2022-08-17T13:17:13.480Z,51.71
2022-08-17T13:20:38.333Z,51.79
2022-08-17T13:24:03.889Z,51.68
2022-08-17T13:27:29.053Z,52.23
2022-08-17T13:30:51.112Z,52.48
2022-08-17T13:34:20.448Z,51.88
2022-08-17T13:37:59.253Z,52.75
2022-08-17T13:41:33.791Z,52.99
2022-08-17T13:44:55.873Z,52.46
2022-08-17T13:48:24.967Z,52.59
2022-08-17T13:51:49.743Z,52.30
2022-08-17T13:55:19.976Z,52.76
2022-08-17T13:58:51.831Z,52.65
2022-08-17T14:02:14.980Z,52.58
2022-08-17T14:05:39.685Z,52.55
2022-08-17T14:09:04.957Z,52.76
2022-08-17T14:12:30.414Z,53.70
2022-08-17T14:15:56.364Z,53.29
2022-08-17T14:19:19.233Z,53.37
2022-08-17T14:22:46.399Z,53.08
2022-08-17T14:26:09.018Z,53.15
2022-08-17T14:29:35.405Z,53.21
2022-08-17T14:32:58.286Z,53.64
2022-08-17T14:36:20.498Z,53.51
2022-08-17T14:39:42.697Z,53.65
2022-08-17T14:43:04.728Z,53.88
2022-08-17T14:46:28.440Z,53.90
2022-08-17T14:49:50.757Z,53.52
2022-08-17T14:53:15.618Z,52.95
2022-08-17T14:56:38.809Z,52.96
2022-08-17T15:00:00.752Z,52.70
2022-08-17T15:03:24.095Z,52.65
2022-08-17T15:06:47.546Z,51.85
2022-08-17T15:10:10.025Z,52.00
2022-08-17T15:13:32.725Z,52.54
2022-08-17T15:16:54.664Z,52.46
2022-08-17T15:20:20.859Z,51.80
2022-08-17T15:23:42.795Z,52.06
2022-08-17T15:27:06.052Z,51.74
2022-08-17T15:30:28.670Z,52.05
2022-08-17T15:33:50.529Z,52.08
2022-08-17T15:37:14.012Z,52.01
2022-08-17T15:40:36.808Z,51.86
2022-08-17T15:43:58.968Z,50.98
2022-08-17T15:47:21.282Z,51.37
2022-08-17T15:50:45.261Z,51.49
2022-08-17T15:54:18.683Z,52.34
2022-08-17T15:57:41.674Z,52.88
2022-08-17T16:01:17.029Z,53.09
2022-08-17T16:04:44.102Z,53.01
2022-08-17T16:08:07.343Z,53.51
2022-08-17T16:11:31.153Z,54.08
2022-08-17T16:14:53.501Z,54.12
2022-08-17T16:18:15.849Z,54.25
2022-08-17T16:21:42.566Z,53.30
2022-08-17T16:25:07.644Z,53.24
2022-08-17T16:28:36.196Z,52.45
2022-08-17T16:31:59.481Z,52.53
2022-08-17T16:35:25.253Z,52.29
2022-08-17T16:38:47.117Z,52.31
2022-08-17T16:42:24.646Z,51.74
2022-08-17T16:45:52.006Z,52.63
2022-08-17T16:49:35.865Z,52.70
2022-08-17T16:53:06.601Z,52.58
2022-08-17T16:56:28.978Z,53.11
2022-08-17T16:59:51.640Z,53.71
2022-08-17T17:03:19.128Z,54.33
2022-08-17T17:06:51.682Z,54.96
2022-08-17T17:10:16.832Z,55.38
2022-08-17T17:13:42.584Z,55.88
2022-08-17T17:17:07.448Z,56.39
2022-08-17T17:20:40.228Z,56.54
2022-08-17T17:24:08.814Z,56.77
2022-08-17T17:27:42.682Z,56.57
2022-08-17T17:31:12.573Z,56.83
2022-08-17T17:34:35.875Z,57.15
2022-08-17T17:38:05.223Z,58.25
2022-08-17T17:41:32.064Z,58.44
2022-08-17T17:45:01.010Z,59.22
2022-08-17T17:48:23.629Z,59.83
2022-08-17T17:52:09.910Z,60.35
2022-08-17T17:55:48.477Z,61.67
2022-08-17T17:59:20.064Z,61.23
2022-08-17T18:02:52.792Z,61.07
2022-08-17T18:06:25.666Z,61.19
2022-08-17T18:10:04.536Z,62.23
2022-08-17T18:13:58.841Z,62.80
2022-08-17T18:17:21.739Z,62.59
2022-08-17T18:20:54.009Z,62.42
2022-08-17T18:24:30.917Z,64.12
2022-08-17T18:27:53.401Z,62.95
2022-08-17T18:31:20.437Z,63.64
2022-08-17T18:34:47.555Z,64.09
2022-08-17T18:38:21.685Z,65.09
2022-08-17T18:41:45.902Z,64.88
2022-08-17T18:45:09.066Z,65.34
2022-08-17T18:48:37.064Z,65.90
2022-08-17T18:52:10.245Z,67.55
2022-08-17T18:55:32.825Z,66.04
2022-08-17T18:59:05.094Z,66.93
2022-08-17T19:02:44.156Z,67.11
2022-08-17T19:06:31.691Z,67.58
2022-08-17T19:09:59.291Z,67.46
2022-08-17T19:13:26.199Z,66.85
2022-08-17T19:16:52.665Z,67.01
2022-08-17T19:20:19.877Z,67.52
2022-08-17T19:23:54.207Z,67.63
2022-08-17T19:27:22.619Z,68.04
2022-08-17T19:30:45.547Z,67.60
2022-08-17T19:34:08.472Z,67.94
2022-08-17T19:37:38.161Z,69.13
2022-08-17T19:41:11.044Z,69.90
2022-08-17T19:44:47.367Z,70.05
2022-08-17T19:48:25.314Z,70.77
2022-08-17T19:51:59.929Z,71.53
2022-08-17T19:55:31.811Z,71.46
2022-08-17T19:59:02.511Z,72.45
2022-08-17T20:02:38.825Z,73.48
2022-08-17T20:06:13.404Z,72.90
2022-08-17T20:09:39.360Z,73.55
2022-08-17T20:13:08.409Z,72.65
2022-08-17T20:16:33.404Z,73.21
2022-08-17T20:20:04.141Z,73.87
2022-08-17T20:23:46.733Z,75.09
2022-08-17T20:27:16.480Z,74.55
2022-08-17T20:30:41.857Z,74.44
2022-08-17T20:34:33.672Z,75.95
2022-08-17T20:38:02.233Z,74.47
2022-08-17T20:41:26.477Z,75.50
2022-08-17T20:44:50.501Z,75.92
2022-08-17T20:48:36.301Z,76.14
2022-08-17T20:52:07.969Z,75.70
2022-08-17T20:55:55.845Z,76.72
2022-08-17T20:59:55.357Z,76.38
2022-08-17T21:03:50.853Z,76.98
2022-08-17T21:07:42.555Z,76.99
2022-08-17T21:11:56.766Z,78.53
2022-08-17T21:15:37.228Z,77.94
2022-08-17T21:19:10.398Z,78.24
2022-08-17T21:22:48.340Z,77.59
2022-08-17T21:26:19.910Z,78.11
2022-08-17T21:29:55.065Z,78.63
2022-08-17T21:33:36.921Z,79.41
2022-08-17T21:37:28.840Z,78.61
2022-08-17T21:40:54.509Z,79.70
2022-08-17T21:44:27.785Z,79.20
2022-08-17T21:48:08.993Z,78.55
2022-08-17T21:51:32.645Z,78.10
2022-08-17T21:54:59.078Z,76.69
2022-08-17T21:58:30.664Z,76.08
2022-08-17T22:01:57.996Z,76.39
2022-08-17T22:05:30.838Z,78.10
2022-08-17T22:09:05.916Z,78.37
2022-08-17T22:12:28.091Z,78.82
2022-08-17T22:16:36.572Z,80.03
2022-08-17T22:20:00.773Z,81.86
2022-08-17T22:23:44.137Z,80.04
2022-08-17T22:27:10.469Z,80.58
2022-08-17T22:30:38.900Z,81.15
2022-08-17T22:34:11.548Z,81.60
2022-08-17T22:37:34.755Z,80.04
2022-08-17T22:41:13.603Z,80.08
2022-08-17T22:44:37.581Z,83.37
2022-08-17T22:48:02.658Z,81.21
2022-08-17T22:51:33.490Z,81.20
2022-08-17T22:55:21.884Z,80.94
2022-08-17T22:59:08.220Z,81.03
2022-08-17T23:02:33.242Z,82.09
2022-08-17T23:06:06.671Z,82.82
2022-08-17T23:09:29.945Z,82.96
2022-08-17T23:12:53.565Z,82.61
2022-08-17T23:16:15.983Z,82.85
2022-08-17T23:19:37.903Z,83.07
2022-08-17T23:23:00.808Z,83.28
2022-08-17T23:26:23.381Z,82.90
2022-08-17T23:29:47.212Z,83.06
2022-08-17T23:33:15.545Z,83.53
2022-08-17T23:36:37.558Z,84.37
2022-08-17T23:39:59.499Z,83.95
2022-08-17T23:47:04.719Z,83.63
2022-08-17T23:50:29.893Z,82.66
2022-08-17T23:53:56.889Z,83.58
2022-08-17T23:57:33.819Z,82.99
